Terminal Aerodrome Forecast
Issued by NWS Cleveland, OH

Home | Current Version | Previous Version | Text Only | Print | Product List | Glossary Off
Versions: 1 2 3 4 5 6 7 8 9 10 11 12 13 14 15 16 17 18 19

000
FTUS41 KCLE 242335
TAFCAK
TAF
KCAK 242335Z 2500/2524 10012G20KT P6SM BKN100
     FM250200 10010KT P6SM OVC070
     FM250600 11008KT P6SM OVC035
     FM251100 12008KT P6SM OVC025
      TEMPO 2511/2515 5SM -SHRA OVC015
     FM251600 13010KT P6SM BKN050=

USA.gov is the U.S. government's official web portal to all federal, state and local government web resources and services.